Terminal Aerodrome Forecast
Issued by NWS Corpus Christi, TX

Home | Current Version | Previous Version | Text Only | Print | Product List | Glossary On
Versions: 1 2 3 4 5 6 7 8 9 10 11 12 13 14 15 16 17 18
317
FTUS44 KCRP 010520
TAFVCT
TAF
KVCT 010520Z 0106/0206 VRB03KT P6SM SKC
     FM011900 03007KT P6SM VCSH SCT050
     FM020100 VRB05KT P6SM FEW050 FEW120=

USA.gov is the U.S. government's official web portal to all federal, state and local government web resources and services.